Time;durP1;ratioP1;P1;durP2;ratioP2;P2;SDS_P1;SDS_P2;PMS_P1;PMS_P2;Temp;Humidity;BMP_temperature;BMP_pressure;BME280_temperature;BME280_humidity;BME280_pressure;Samples;Min_cycle;Max_cycle;Signal;HPM_P1;HPM_P2
2024/04/16 00:01:54;;;;;;;0.55;0.17;;;;;;;;;;5272694;27;20039;-76
2024/04/16 00:04:21;;;;;;;0.22;0.22;;;;;;;;;;5271093;27;20430;-73
2024/04/16 00:06:47;;;;;;;0.28;0.28;;;;;;;;;;5273494;27;20574;-75
2024/04/16 00:09:12;;;;;;;2.00;0.30;;;;;;;;;;5273563;27;20014;-75
2024/04/16 00:11:38;;;;;;;0.08;0.08;;;;;;;;;;5273765;27;20002;-75
2024/04/16 00:14:04;;;;;;;0.20;0.20;;;;;;;;;;5273691;27;19998;-74
2024/04/16 00:16:30;;;;;;;1.10;0.35;;;;;;;;;;5271961;27;20016;-74
2024/04/16 00:18:56;;;;;;;0.10;0.10;;;;;;;;;;5272507;27;20437;-75
2024/04/16 00:21:22;;;;;;;0.15;0.10;;;;;;;;;;5259858;27;20002;-75
2024/04/16 00:23:48;;;;;;;3.20;0.32;;;;;;;;;;5242433;27;19998;-74
2024/04/16 00:26:13;;;;;;;0.93;0.30;;;;;;;;;;5242986;27;20002;-75
2024/04/16 00:28:39;;;;;;;0.20;0.20;;;;;;;;;;5243228;27;20006;-74
2024/04/16 00:31:05;;;;;;;0.35;0.30;;;;;;;;;;5241755;27;20128;-74
2024/04/16 00:33:30;;;;;;;0.25;0.25;;;;;;;;;;5241350;27;20017;-74
2024/04/16 00:35:56;;;;;;;2.00;0.47;;;;;;;;;;5241586;27;20147;-73
2024/04/16 00:38:22;;;;;;;0.20;0.20;;;;;;;;;;5241469;27;20374;-75
2024/04/16 00:40:48;;;;;;;0.35;0.35;;;;;;;;;;5271316;27;19998;-74
2024/04/16 00:43:19;;;;;;;2.42;0.55;;;;;;;;;;5271368;27;20587;-74
2024/04/16 00:45:53;;;;;;;0.85;0.30;;;;;;;;;;5241028;27;20006;-76
2024/04/16 00:48:28;;;;;;;0.30;0.30;;;;;;;;;;5241353;27;20002;-76
2024/04/16 00:50:56;;;;;;;0.32;0.30;;;;;;;;;;5271340;27;20013;-74
2024/04/16 00:53:23;;;;;;;0.40;0.20;;;;;;;;;;5241623;27;20466;-75
2024/04/16 00:55:50;;;;;;;0.43;0.38;;;;;;;;;;5241081;27;20563;-74
2024/04/16 00:58:18;;;;;;;0.70;0.40;;;;;;;;;;5241384;27;20021;-74
2024/04/16 01:00:44;;;;;;;0.40;0.40;;;;;;;;;;5241255;27;20025;-74
2024/04/16 01:03:10;;;;;;;0.70;0.45;;;;;;;;;;5271261;27;20018;-76
2024/04/16 01:05:36;;;;;;;0.68;0.43;;;;;;;;;;5243840;27;20429;-73
2024/04/16 01:08:02;;;;;;;2.87;0.30;;;;;;;;;;5274905;27;20002;-75
2024/04/16 01:10:36;;;;;;;0.30;0.30;;;;;;;;;;5274557;27;20341;-73
2024/04/16 01:13:02;;;;;;;0.33;0.33;;;;;;;;;;5274910;27;20002;-75
2024/04/16 01:15:27;;;;;;;0.40;0.40;;;;;;;;;;5244435;27;20331;-73
2024/04/16 01:17:53;;;;;;;0.30;0.30;;;;;;;;;;5245260;27;20018;-75
2024/04/16 01:20:19;;;;;;;0.50;0.30;;;;;;;;;;5274499;27;20302;-75
2024/04/16 01:22:50;;;;;;;0.60;0.50;;;;;;;;;;5244653;27;20438;-74
2024/04/16 01:25:16;;;;;;;0.30;0.30;;;;;;;;;;5274923;27;20085;-74
2024/04/16 01:27:41;;;;;;;0.30;0.30;;;;;;;;;;5244623;27;20010;-74
2024/04/16 01:30:07;;;;;;;0.73;0.40;;;;;;;;;;5274474;27;20002;-74
2024/04/16 01:32:34;;;;;;;2.33;0.27;;;;;;;;;;5244690;27;20014;-75
2024/04/16 01:35:00;;;;;;;0.27;0.27;;;;;;;;;;5244284;27;20021;-74
2024/04/16 01:37:25;;;;;;;1.30;0.40;;;;;;;;;;5274394;27;20458;-75
2024/04/16 01:39:51;;;;;;;0.47;0.30;;;;;;;;;;5244106;27;20020;-74
2024/04/16 01:42:16;;;;;;;0.50;0.50;;;;;;;;;;5274219;27;20481;-75
2024/04/16 01:44:45;;;;;;;0.50;0.40;;;;;;;;;;5244288;27;20017;-74
2024/04/16 01:47:11;;;;;;;0.83;0.40;;;;;;;;;;5244419;27;20006;-76
2024/04/16 01:49:37;;;;;;;0.43;0.43;;;;;;;;;;5216857;27;20017;-75
2024/04/16 01:52:03;;;;;;;2.20;0.40;;;;;;;;;;5238628;27;20003;-73
2024/04/16 01:54:28;;;;;;;0.30;0.30;;;;;;;;;;5240648;27;20007;-73
2024/04/16 01:56:54;;;;;;;0.83;0.73;;;;;;;;;;5238832;27;20087;-76
2024/04/16 01:59:19;;;;;;;0.98;0.45;;;;;;;;;;5240476;27;20018;-77
2024/04/16 02:01:45;;;;;;;0.80;0.37;;;;;;;;;;5238469;27;20115;-75
2024/04/16 02:04:11;;;;;;;1.97;0.37;;;;;;;;;;5238645;27;20017;-75
2024/04/16 02:06:36;;;;;;;0.77;0.33;;;;;;;;;;5237873;27;20018;-75
2024/04/16 02:09:02;;;;;;;0.50;0.50;;;;;;;;;;5240235;27;20018;-74
2024/04/16 02:11:27;;;;;;;0.77;0.40;;;;;;;;;;5238157;27;20006;-74
2024/04/16 02:13:53;;;;;;;0.60;0.40;;;;;;;;;;5237707;27;20003;-74
2024/04/16 02:16:19;;;;;;;0.50;0.40;;;;;;;;;;5236919;27;20018;-74
2024/04/16 02:18:44;;;;;;;0.40;0.40;;;;;;;;;;5237782;27;20339;-74
2024/04/16 02:21:10;;;;;;;0.20;0.20;;;;;;;;;;5224792;27;20008;-75
2024/04/16 02:23:36;;;;;;;1.90;0.40;;;;;;;;;;5206932;27;20006;-74
2024/04/16 02:26:01;;;;;;;0.20;0.17;;;;;;;;;;5204729;27;20047;-74
2024/04/16 02:28:27;;;;;;;0.80;0.50;;;;;;;;;;5204503;27;20015;-74
2024/04/16 02:30:52;;;;;;;0.80;0.30;;;;;;;;;;5204027;27;20048;-75
2024/04/16 02:33:20;;;;;;;1.27;0.50;;;;;;;;;;5204561;27;20007;-73
2024/04/16 02:35:45;;;;;;;2.27;0.30;;;;;;;;;;5204301;27;20004;-74
2024/04/16 02:38:11;;;;;;;1.90;0.30;;;;;;;;;;5206550;27;20019;-72
2024/04/16 02:40:37;;;;;;;0.97;0.50;;;;;;;;;;5204005;27;20019;-74
2024/04/16 02:43:03;;;;;;;3.17;0.40;;;;;;;;;;5204872;27;20082;-75
2024/04/16 02:45:29;;;;;;;1.30;0.47;;;;;;;;;;5204714;27;20138;-75
2024/04/16 02:47:54;;;;;;;1.23;0.40;;;;;;;;;;5204238;27;20011;-74
2024/04/16 02:50:20;;;;;;;0.40;0.40;;;;;;;;;;5204167;27;20017;-73
2024/04/16 02:52:46;;;;;;;0.40;0.40;;;;;;;;;;5206001;27;20447;-74
2024/04/16 02:55:11;;;;;;;2.53;0.50;;;;;;;;;;5206274;27;20447;-74
2024/04/16 02:57:37;;;;;;;0.63;0.47;;;;;;;;;;5206472;27;20003;-76
2024/04/16 03:00:04;;;;;;;1.93;0.60;;;;;;;;;;5204339;27;20485;-75
2024/04/16 03:02:30;;;;;;;0.70;0.40;;;;;;;;;;5204565;27;20019;-74
2024/04/16 03:04:56;;;;;;;0.30;0.30;;;;;;;;;;5204338;27;20004;-76
2024/04/16 03:07:22;;;;;;;1.63;0.60;;;;;;;;;;5204235;27;20004;-75
2024/04/16 03:09:47;;;;;;;0.97;0.40;;;;;;;;;;5204238;27;20025;-74
2024/04/16 03:12:13;;;;;;;0.30;0.30;;;;;;;;;;5204441;27;20023;-73
2024/04/16 03:14:39;;;;;;;1.83;0.50;;;;;;;;;;5205833;27;20079;-73
2024/04/16 03:17:04;;;;;;;3.20;0.60;;;;;;;;;;5203993;27;20004;-75
2024/04/16 03:19:30;;;;;;;0.70;0.40;;;;;;;;;;5205529;27;20004;-73
2024/04/16 03:21:56;;;;;;;3.73;0.50;;;;;;;;;;5203310;27;20400;-74
2024/04/16 03:24:21;;;;;;;0.40;0.40;;;;;;;;;;5203962;27;20121;-75
2024/04/16 03:26:48;;;;;;;1.10;0.30;;;;;;;;;;5204002;27;20088;-74
2024/04/16 03:29:13;;;;;;;4.83;0.40;;;;;;;;;;5204005;27;20003;-76
2024/04/16 03:31:39;;;;;;;1.27;0.40;;;;;;;;;;5204443;27;20008;-74
2024/04/16 03:34:04;;;;;;;3.33;0.53;;;;;;;;;;5204406;27;20332;-74
2024/04/16 03:36:30;;;;;;;0.30;0.30;;;;;;;;;;5206250;27;20023;-74
2024/04/16 03:38:56;;;;;;;0.33;0.33;;;;;;;;;;5203718;27;20495;-75
2024/04/16 03:41:22;;;;;;;0.90;0.37;;;;;;;;;;5205543;27;20012;-74
2024/04/16 03:43:51;;;;;;;0.60;0.30;;;;;;;;;;5205521;27;20019;-75
2024/04/16 03:46:16;;;;;;;0.77;0.30;;;;;;;;;;5205633;27;20173;-75
2024/04/16 03:48:42;;;;;;;3.07;0.53;;;;;;;;;;5203341;27;20087;-75
2024/04/16 03:51:08;;;;;;;0.53;0.37;;;;;;;;;;5241885;27;20407;-77
2024/04/16 03:53:33;;;;;;;0.50;0.40;;;;;;;;;;5242623;27;20072;-75
2024/04/16 03:56:00;;;;;;;0.60;0.50;;;;;;;;;;5272359;27;20403;-74
2024/04/16 03:58:28;;;;;;;2.23;0.50;;;;;;;;;;5272720;27;20070;-75
2024/04/16 04:01:00;;;;;;;2.40;0.60;;;;;;;;;;5242172;27;20006;-75
2024/04/16 04:03:28;;;;;;;1.65;0.50;;;;;;;;;;5242713;27;20002;-75
2024/04/16 04:05:54;;;;;;;1.87;0.60;;;;;;;;;;5242093;27;20076;-72
2024/04/16 04:08:20;;;;;;;0.97;0.50;;;;;;;;;;5242145;27;20002;-76
2024/04/16 04:10:46;;;;;;;0.87;0.53;;;;;;;;;;5271587;27;20085;-73
2024/04/16 04:13:12;;;;;;;1.77;0.50;;;;;;;;;;5242055;27;20002;-74
2024/04/16 04:15:37;;;;;;;0.57;0.53;;;;;;;;;;5241819;27;20008;-75
2024/04/16 04:18:04;;;;;;;2.07;0.50;;;;;;;;;;5242229;27;20014;-74
2024/04/16 04:20:29;;;;;;;2.03;0.57;;;;;;;;;;5271743;27;20350;-75
2024/04/16 04:22:55;;;;;;;1.73;0.40;;;;;;;;;;5271571;27;20017;-73
2024/04/16 04:25:20;;;;;;;3.43;0.67;;;;;;;;;;5242034;27;20084;-75
2024/04/16 04:27:46;;;;;;;0.50;0.40;;;;;;;;;;5242026;27;20047;-74
2024/04/16 04:30:13;;;;;;;0.83;0.70;;;;;;;;;;5241642;27;20002;-73
2024/04/16 04:32:38;;;;;;;2.17;0.70;;;;;;;;;;5241373;27;20010;-74
2024/04/16 04:35:04;;;;;;;1.33;0.67;;;;;;;;;;5241557;27;20143;-75
2024/04/16 04:37:30;;;;;;;2.13;0.50;;;;;;;;;;5241767;27;20562;-75
2024/04/16 04:39:55;;;;;;;0.80;0.60;;;;;;;;;;5241437;27;20042;-75
2024/04/16 04:42:21;;;;;;;2.00;0.77;;;;;;;;;;5241421;27;19998;-76
2024/04/16 04:44:47;;;;;;;3.67;0.93;;;;;;;;;;5241140;27;20002;-77
2024/04/16 04:47:13;;;;;;;2.27;0.87;;;;;;;;;;5240409;27;20017;-75
2024/04/16 04:49:38;;;;;;;0.60;0.60;;;;;;;;;;5271121;27;20003;-74
2024/04/16 04:52:04;;;;;;;2.33;0.90;;;;;;;;;;5271670;27;20003;-74
2024/04/16 04:54:30;;;;;;;1.20;0.80;;;;;;;;;;5241377;27;20002;-75
2024/04/16 04:56:56;;;;;;;2.47;0.70;;;;;;;;;;5240868;27;20034;-75
2024/04/16 04:59:21;;;;;;;1.70;1.07;;;;;;;;;;5241586;27;20034;-76
2024/04/16 05:01:47;;;;;;;4.10;0.83;;;;;;;;;;5240684;27;20085;-76
2024/04/16 05:04:13;;;;;;;3.53;0.77;;;;;;;;;;5241649;27;20021;-75
2024/04/16 05:06:39;;;;;;;1.57;0.80;;;;;;;;;;5241754;27;20473;-76
2024/04/16 05:09:05;;;;;;;4.30;0.77;;;;;;;;;;5270456;27;20038;-76
2024/04/16 05:11:31;;;;;;;1.40;0.70;;;;;;;;;;5268777;27;20353;-77
2024/04/16 05:13:57;;;;;;;0.90;0.77;;;;;;;;;;5265003;27;20026;-75
2024/04/16 05:16:23;;;;;;;2.33;0.70;;;;;;;;;;5220703;27;19999;-75
2024/04/16 05:18:48;;;;;;;3.37;0.93;;;;;;;;;;5241839;27;19998;-76
2024/04/16 05:21:14;;;;;;;1.13;0.87;;;;;;;;;;5240370;27;20009;-75
2024/04/16 05:23:40;;;;;;;0.97;0.50;;;;;;;;;;5270888;27;19994;-75
2024/04/16 05:26:05;;;;;;;1.60;0.77;;;;;;;;;;5235116;27;20006;-75
2024/04/16 05:28:34;;;;;;;3.90;0.90;;;;;;;;;;5236792;27;19999;-74
2024/04/16 05:30:59;;;;;;;4.23;0.70;;;;;;;;;;5267648;27;20044;-75
2024/04/16 05:33:26;;;;;;;0.70;0.70;;;;;;;;;;5238059;27;19998;-76
2024/04/16 05:35:51;;;;;;;4.83;1.13;;;;;;;;;;5240785;27;20035;-73
2024/04/16 05:38:17;;;;;;;9.57;1.13;;;;;;;;;;5270895;27;20346;-73
2024/04/16 05:40:43;;;;;;;1.50;0.70;;;;;;;;;;5240780;27;20013;-75
2024/04/16 05:43:09;;;;;;;1.80;0.90;;;;;;;;;;5240398;27;20076;-73
2024/04/16 05:45:35;;;;;;;0.95;0.85;;;;;;;;;;5270524;27;20003;-75
2024/04/16 05:48:00;;;;;;;7.27;0.93;;;;;;;;;;5234372;27;20021;-74
2024/04/16 05:50:26;;;;;;;2.37;0.93;;;;;;;;;;5242037;27;20326;-75
2024/04/16 05:52:52;;;;;;;2.35;1.00;;;;;;;;;;5235543;27;20018;-75
2024/04/16 05:55:18;;;;;;;3.30;0.80;;;;;;;;;;5250598;27;20016;-74
2024/04/16 05:57:44;;;;;;;0.83;0.70;;;;;;;;;;5269380;27;20002;-75
2024/04/16 06:00:10;;;;;;;2.83;0.95;;;;;;;;;;5239635;27;20382;-74
2024/04/16 06:02:36;;;;;;;2.55;0.80;;;;;;;;;;5261984;27;19998;-76
2024/04/16 06:05:01;;;;;;;1.27;0.70;;;;;;;;;;5261249;27;20065;-75
2024/04/16 06:07:27;;;;;;;1.80;1.10;;;;;;;;;;5265058;27;20066;-74
2024/04/16 06:09:53;;;;;;;0.40;0.40;;;;;;;;;;5267490;27;20489;-75
2024/04/16 06:12:19;;;;;;;2.65;0.80;;;;;;;;;;5232847;27;20010;-74
2024/04/16 06:14:44;;;;;;;2.38;0.90;;;;;;;;;;5252188;27;20041;-75
2024/04/16 06:17:10;;;;;;;1.85;0.82;;;;;;;;;;5240587;27;20465;-75
2024/04/16 06:19:36;;;;;;;2.47;0.85;;;;;;;;;;5243096;27;20498;-74
2024/04/16 06:22:02;;;;;;;1.17;0.70;;;;;;;;;;5240229;27;20445;-76
2024/04/16 06:24:28;;;;;;;0.73;0.63;;;;;;;;;;5240667;27;19994;-75
2024/04/16 06:26:54;;;;;;;2.55;0.70;;;;;;;;;;5272571;27;20006;-74
2024/04/16 06:29:20;;;;;;;0.70;0.70;;;;;;;;;;5242148;27;20106;-75
2024/04/16 06:31:46;;;;;;;1.95;0.73;;;;;;;;;;5271782;27;20002;-74
2024/04/16 06:34:11;;;;;;;2.97;0.65;;;;;;;;;;5242149;27;20014;-75
2024/04/16 06:36:37;;;;;;;1.40;0.63;;;;;;;;;;5249915;27;20045;-76
2024/04/16 06:39:03;;;;;;;1.67;0.65;;;;;;;;;;5293231;27;20386;-75
2024/04/16 06:41:28;;;;;;;0.95;0.70;;;;;;;;;;5238629;27;20415;-76
2024/04/16 06:43:56;;;;;;;2.53;0.80;;;;;;;;;;5269709;27;20006;-75
2024/04/16 06:46:22;;;;;;;1.45;0.73;;;;;;;;;;5251310;27;20006;-75
2024/04/16 06:48:50;;;;;;;4.60;0.90;;;;;;;;;;5234363;27;20455;-74
2024/04/16 06:51:16;;;;;;;4.83;1.10;;;;;;;;;;5240183;27;20022;-76
2024/04/16 06:53:42;;;;;;;2.17;0.57;;;;;;;;;;5201128;27;20026;-77
2024/04/16 06:56:08;;;;;;;2.22;0.57;;;;;;;;;;5231767;27;19999;-75
2024/04/16 06:58:34;;;;;;;4.10;1.20;;;;;;;;;;5182746;27;20407;-75
2024/04/16 07:01:00;;;;;;;1.47;0.80;;;;;;;;;;5221090;27;20003;-75
2024/04/16 07:03:27;;;;;;;2.37;1.00;;;;;;;;;;5210749;27;20249;-74
2024/04/16 07:05:53;;;;;;;2.30;0.70;;;;;;;;;;5151859;27;20341;-73
2024/04/16 07:08:22;;;;;;;5.38;0.93;;;;;;;;;;5191363;27;20016;-74
2024/04/16 07:10:54;;;;;;;4.10;0.90;;;;;;;;;;5197304;27;20807;-75
2024/04/16 07:13:20;;;;;;;2.40;1.08;;;;;;;;;;5197378;27;20152;-79
2024/04/16 07:15:48;;;;;;;2.28;0.68;;;;;;;;;;5189806;27;20443;-72
2024/04/16 07:18:17;;;;;;;4.15;1.02;;;;;;;;;;5192884;27;20377;-75
2024/04/16 07:20:49;;;;;;;4.45;1.13;;;;;;;;;;5198266;27;20007;-74
2024/04/16 07:23:16;;;;;;;;;;;;;;;;;;5198857;27;20019;-74
2024/04/16 07:25:44;;;;;;;2.78;0.70;;;;;;;;;;5196408;27;19943;-77
2024/04/16 07:28:13;;;;;;;1.50;1.02;;;;;;;;;;5193098;27;20031;-76
2024/04/16 07:30:41;;;;;;;2.95;0.80;;;;;;;;;;5196498;27;20004;-75
2024/04/16 07:33:07;;;;;;;2.40;1.10;;;;;;;;;;5194874;27;20593;-75
2024/04/16 07:35:33;;;;;;;4.70;1.10;;;;;;;;;;5190147;27;20054;-76
2024/04/16 07:37:59;;;;;;;0.95;0.88;;;;;;;;;;5185264;27;20026;-76
2024/04/16 07:40:25;;;;;;;5.57;0.70;;;;;;;;;;5196101;27;20014;-75
2024/04/16 07:42:51;;;;;;;3.45;0.70;;;;;;;;;;5184215;27;19995;-75
2024/04/16 07:45:19;;;;;;;0.88;0.52;;;;;;;;;;5191732;27;20004;-77
2024/04/16 07:47:45;;;;;;;4.07;1.27;;;;;;;;;;5186974;27;20554;-76
2024/04/16 07:50:10;;;;;;;2.10;0.50;;;;;;;;;;5196155;27;20306;-74
2024/04/16 07:52:36;;;;;;;7.53;0.75;;;;;;;;;;5232535;27;20488;-76
2024/04/16 07:55:02;;;;;;;22.38;2.05;;;;;;;;;;5230281;27;20010;-74
2024/04/16 07:57:28;;;;;;;0.47;0.40;;;;;;;;;;5232088;27;20328;-73
2024/04/16 07:59:55;;;;;;;0.38;0.22;;;;;;;;;;5240741;27;20010;-76
2024/04/16 08:02:22;;;;;;;0.95;0.40;;;;;;;;;;5232365;27;20421;-75
2024/04/16 08:04:48;;;;;;;1.60;0.30;;;;;;;;;;5235079;27;20458;-77
2024/04/16 08:07:13;;;;;;;0.90;0.45;;;;;;;;;;5226923;27;20010;-74
2024/04/16 08:09:40;;;;;;;0.10;0.10;;;;;;;;;;5239613;27;20002;-76
2024/04/16 08:12:07;;;;;;;0.65;0.30;;;;;;;;;;5235846;27;20084;-74
2024/04/16 08:14:32;;;;;;;5.05;0.45;;;;;;;;;;5235461;27;20182;-74
2024/04/16 08:16:58;;;;;;;1.85;0.40;;;;;;;;;;5257695;27;20372;-76
2024/04/16 08:19:23;;;;;;;0.22;0.22;;;;;;;;;;5264204;27;20002;-75
2024/04/16 08:21:50;;;;;;;0.20;0.20;;;;;;;;;;5236439;27;20018;-77
2024/04/16 08:24:16;;;;;;;0.60;0.40;;;;;;;;;;5265839;27;19999;-75
2024/04/16 08:26:41;;;;;;;0.75;0.50;;;;;;;;;;5231695;27;20017;-76
2024/04/16 08:29:07;;;;;;;0.47;0.40;;;;;;;;;;5235076;27;20013;-76
2024/04/16 08:31:32;;;;;;;1.92;0.38;;;;;;;;;;5237911;27;20002;-75
2024/04/16 08:33:58;;;;;;;1.98;0.63;;;;;;;;;;5261462;27;20053;-76
2024/04/16 08:36:24;;;;;;;0.43;0.40;;;;;;;;;;5231097;27;20006;-76
2024/04/16 08:38:50;;;;;;;1.05;0.63;;;;;;;;;;5234414;27;20816;-74
2024/04/16 08:41:16;;;;;;;1.80;0.60;;;;;;;;;;5260253;27;20021;-75
2024/04/16 08:43:45;;;;;;;1.13;0.50;;;;;;;;;;5259437;27;20002;-77
2024/04/16 08:46:12;;;;;;;1.85;0.60;;;;;;;;;;5224230;27;20007;-76
2024/04/16 08:48:39;;;;;;;1.20;0.43;;;;;;;;;;5206305;27;20003;-77
2024/04/16 08:51:06;;;;;;;1.45;0.50;;;;;;;;;;5209643;27;20031;-75
2024/04/16 08:53:36;;;;;;;2.78;0.55;;;;;;;;;;5196229;27;20019;-76
2024/04/16 08:56:02;;;;;;;1.02;0.60;;;;;;;;;;5190346;27;20008;-76
2024/04/16 08:58:29;;;;;;;2.10;0.50;;;;;;;;;;5196571;27;20014;-76
2024/04/16 09:01:28;;;;;;;1.33;0.75;;;;;;;;;;5200164;27;20008;-75
2024/04/16 09:03:54;;;;;;;0.43;0.30;;;;;;;;;;5181427;27;20014;-76
2024/04/16 09:06:20;;;;;;;5.85;0.80;;;;;;;;;;5188616;27;20004;-76
2024/04/16 09:08:47;;;;;;;1.50;0.47;;;;;;;;;;5195816;27;20003;-78
2024/04/16 09:11:21;;;;;;;2.15;0.70;;;;;;;;;;5196237;27;21630;-75
2024/04/16 09:13:47;;;;;;;1.83;0.50;;;;;;;;;;5191161;27;20007;-77
2024/04/16 09:16:13;;;;;;;1.83;0.70;;;;;;;;;;5188158;27;20018;-75
2024/04/16 09:18:39;;;;;;;2.97;0.50;;;;;;;;;;5196428;27;20028;-78
2024/04/16 09:21:14;;;;;;;7.68;1.08;;;;;;;;;;5193365;27;20360;-75
2024/04/16 09:23:41;;;;;;;3.30;0.85;;;;;;;;;;5190541;27;20396;-76
2024/04/16 09:26:13;;;;;;;3.35;0.40;;;;;;;;;;5192367;27;20116;-80
2024/04/16 09:28:47;;;;;;;0.32;0.30;;;;;;;;;;5198576;27;20087;-77
2024/04/16 09:31:16;;;;;;;3.75;0.60;;;;;;;;;;5200097;27;20016;-75
2024/04/16 09:33:42;;;;;;;2.28;0.60;;;;;;;;;;5195112;27;20017;-74
2024/04/16 09:36:15;;;;;;;2.95;0.65;;;;;;;;;;5190719;27;20007;-76
2024/04/16 09:38:46;;;;;;;4.53;0.80;;;;;;;;;;5193875;27;19999;-76
2024/04/16 09:41:13;;;;;;;5.05;0.52;;;;;;;;;;5143380;27;20032;-76
2024/04/16 09:43:43;;;;;;;2.00;0.50;;;;;;;;;;5171954;27;20324;-75
2024/04/16 09:46:10;;;;;;;3.70;1.23;;;;;;;;;;5197298;27;20011;-74
2024/04/16 09:48:44;;;;;;;2.17;0.63;;;;;;;;;;5173017;27;20412;-74
2024/04/16 09:51:12;;;;;;;3.15;0.77;;;;;;;;;;5204900;27;20020;-75
2024/04/16 09:53:39;;;;;;;2.15;0.45;;;;;;;;;;5205477;27;20082;-75
2024/04/16 09:56:09;;;;;;;1.50;0.40;;;;;;;;;;5187649;27;20003;-75
2024/04/16 09:58:38;;;;;;;1.65;0.40;;;;;;;;;;5198504;27;20054;-77
2024/04/16 10:01:04;;;;;;;2.05;0.65;;;;;;;;;;5198964;27;20014;-75
2024/04/16 10:03:30;;;;;;;2.28;0.57;;;;;;;;;;5199458;27;20016;-76
2024/04/16 10:05:57;;;;;;;2.50;0.70;;;;;;;;;;5196250;27;20360;-75
2024/04/16 10:08:26;;;;;;;5.93;0.60;;;;;;;;;;5197429;27;19996;-75
2024/04/16 10:10:58;;;;;;;1.83;0.40;;;;;;;;;;5198865;27;20051;-77
2024/04/16 10:13:32;;;;;;;4.20;0.88;;;;;;;;;;5197661;27;20415;-76
2024/04/16 10:15:58;;;;;;;4.18;0.50;;;;;;;;;;5198275;27;20023;-75
2024/04/16 10:18:25;;;;;;;1.92;0.80;;;;;;;;;;5199192;27;20012;-76
2024/04/16 10:20:52;;;;;;;2.47;0.65;;;;;;;;;;5198247;27;20126;-76
2024/04/16 10:23:21;;;;;;;0.73;0.50;;;;;;;;;;5194776;27;20086;-75
2024/04/16 10:25:53;;;;;;;1.98;0.40;;;;;;;;;;5188702;27;20025;-75
2024/04/16 10:28:28;;;;;;;3.13;0.77;;;;;;;;;;5211631;27;20000;-76
2024/04/16 10:31:08;;;;;;;1.58;0.38;;;;;;;;;;5202170;27;20016;-77
2024/04/16 10:33:40;;;;;;;0.70;0.60;;;;;;;;;;5200412;27;20070;-76
2024/04/16 10:36:09;;;;;;;3.10;0.52;;;;;;;;;;5197974;27;21874;-80
2024/04/16 10:38:38;;;;;;;3.97;0.60;;;;;;;;;;5198034;27;20046;-76
2024/04/16 10:41:04;;;;;;;3.78;0.80;;;;;;;;;;5192274;27;20016;-77
2024/04/16 10:43:37;;;;;;;2.55;0.55;;;;;;;;;;5199063;27;20177;-76
2024/04/16 10:46:07;;;;;;;1.85;0.70;;;;;;;;;;5196048;27;20014;-76
2024/04/16 10:48:34;;;;;;;1.10;0.68;;;;;;;;;;5197708;27;20014;-77
2024/04/16 10:50:59;;;;;;;2.13;0.70;;;;;;;;;;5211456;27;20407;-76
2024/04/16 10:53:25;;;;;;;1.88;0.52;;;;;;;;;;5236007;27;20072;-76
2024/04/16 10:55:50;;;;;;;2.53;0.85;;;;;;;;;;5230434;27;20014;-77
2024/04/16 10:58:19;;;;;;;1.30;0.60;;;;;;;;;;5236585;27;20028;-76
2024/04/16 11:00:45;;;;;;;1.17;0.60;;;;;;;;;;5237271;27;19998;-76
2024/04/16 11:03:11;;;;;;;1.08;0.55;;;;;;;;;;5266648;27;20002;-75
2024/04/16 11:05:39;;;;;;;7.15;1.50;;;;;;;;;;5229166;27;20025;-76
2024/04/16 11:08:07;;;;;;;6.95;0.70;;;;;;;;;;5239037;27;20084;-75
2024/04/16 11:10:41;;;;;;;5.88;0.60;;;;;;;;;;5240605;27;20017;-74
2024/04/16 11:13:07;;;;;;;1.35;0.40;;;;;;;;;;5268582;27;20342;-75
2024/04/16 11:15:34;;;;;;;1.80;0.65;;;;;;;;;;5255361;27;20002;-76
2024/04/16 11:18:03;;;;;;;0.85;0.60;;;;;;;;;;5234760;27;20010;-77
2024/04/16 11:20:29;;;;;;;1.23;0.50;;;;;;;;;;5263054;27;20020;-76
2024/04/16 11:22:58;;;;;;;2.58;0.70;;;;;;;;;;5277947;27;20147;-75
2024/04/16 11:25:23;;;;;;;7.03;5.93;;;;;;;;;;5264267;27;20006;-75
2024/04/16 11:27:49;;;;;;;3.75;0.80;;;;;;;;;;5266924;27;20060;-76
2024/04/16 11:30:18;;;;;;;1.15;0.50;;;;;;;;;;5237633;27;20005;-75
2024/04/16 11:32:44;;;;;;;1.15;0.47;;;;;;;;;;5243565;27;20447;-77
2024/04/16 11:35:12;;;;;;;2.38;0.73;;;;;;;;;;5263836;27;20076;-75
2024/04/16 11:37:38;;;;;;;1.88;0.70;;;;;;;;;;5262778;27;20006;-76
2024/04/16 11:40:05;;;;;;;2.40;0.75;;;;;;;;;;5211401;27;20120;-75
2024/04/16 11:42:32;;;;;;;3.42;1.15;;;;;;;;;;5262399;27;20464;-75
2024/04/16 11:44:59;;;;;;;1.80;0.50;;;;;;;;;;5232492;27;20021;-75
2024/04/16 11:47:25;;;;;;;0.40;0.32;;;;;;;;;;5233138;27;20013;-77
2024/04/16 11:49:52;;;;;;;1.27;0.50;;;;;;;;;;5236925;27;20104;-76
2024/04/16 11:52:18;;;;;;;5.00;0.70;;;;;;;;;;5240467;27;20014;-74
2024/04/16 11:54:46;;;;;;;3.78;0.50;;;;;;;;;;5237407;27;20570;-76
2024/04/16 11:57:17;;;;;;;1.15;0.40;;;;;;;;;;5240450;27;20042;-74
2024/04/16 11:59:43;;;;;;;3.53;0.60;;;;;;;;;;5266754;27;20082;-74
2024/04/16 12:02:10;;;;;;;2.90;1.20;;;;;;;;;;5228588;27;20011;-75
2024/04/16 12:04:38;;;;;;;0.45;0.40;;;;;;;;;;5261529;27;19999;-75
2024/04/16 12:07:04;;;;;;;5.35;0.85;;;;;;;;;;5259759;27;20002;-74
2024/04/16 12:09:31;;;;;;;0.85;0.65;;;;;;;;;;5238382;27;20005;-75
2024/04/16 12:11:57;;;;;;;2.13;0.93;;;;;;;;;;5233061;27;20079;-74
2024/04/16 12:14:23;;;;;;;1.10;0.60;;;;;;;;;;5203143;27;20014;-73
2024/04/16 12:16:48;;;;;;;4.13;1.13;;;;;;;;;;5258901;27;20576;-76
2024/04/16 12:19:14;;;;;;;2.08;1.02;;;;;;;;;;5239595;27;20084;-76
2024/04/16 12:21:40;;;;;;;1.95;0.70;;;;;;;;;;5232498;27;20014;-73
2024/04/16 12:24:09;;;;;;;1.50;0.73;;;;;;;;;;5229590;27;20014;-76
2024/04/16 12:26:34;;;;;;;4.35;0.52;;;;;;;;;;5255104;27;19998;-76
2024/04/16 12:29:00;;;;;;;2.97;0.60;;;;;;;;;;5211673;27;20026;-76
2024/04/16 12:31:26;;;;;;;4.38;0.80;;;;;;;;;;5251129;27;20050;-75
2024/04/16 12:33:53;;;;;;;2.13;0.60;;;;;;;;;;5257646;27;20014;-75
2024/04/16 12:36:19;;;;;;;4.03;1.13;;;;;;;;;;5217379;27;20014;-74
2024/04/16 12:38:44;;;;;;;1.55;0.70;;;;;;;;;;5206219;27;20021;-75
2024/04/16 12:41:10;;;;;;;2.05;0.70;;;;;;;;;;5230791;27;20025;-76
2024/04/16 12:43:36;;;;;;;1.95;0.80;;;;;;;;;;5264540;27;20010;-75
2024/04/16 12:46:03;;;;;;;1.80;0.80;;;;;;;;;;5260679;27;21845;-75
2024/04/16 12:48:32;;;;;;;1.35;0.55;;;;;;;;;;5238320;27;20002;-75
2024/04/16 12:50:58;;;;;;;0.82;0.70;;;;;;;;;;5238206;27;20007;-76
2024/04/16 12:53:24;;;;;;;7.60;1.00;;;;;;;;;;5240268;27;20003;-77
2024/04/16 12:55:50;;;;;;;3.90;1.00;;;;;;;;;;5238573;27;20352;-75
2024/04/16 12:58:16;;;;;;;3.45;0.60;;;;;;;;;;5208518;27;20014;-75
2024/04/16 13:00:42;;;;;;;5.03;1.25;;;;;;;;;;5244840;27;20002;-75
2024/04/16 13:03:08;;;;;;;7.30;0.80;;;;;;;;;;5222900;27;20021;-75
2024/04/16 13:05:34;;;;;;;2.75;0.50;;;;;;;;;;5242975;27;20002;-76
2024/04/16 13:08:00;;;;;;;1.42;0.38;;;;;;;;;;5246720;27;20010;-76
2024/04/16 13:10:26;;;;;;;1.88;0.60;;;;;;;;;;5217953;27;20015;-75
2024/04/16 13:12:53;;;;;;;1.48;0.50;;;;;;;;;;5270541;27;20460;-75
2024/04/16 13:15:18;;;;;;;2.40;0.60;;;;;;;;;;5249263;27;20002;-78
2024/04/16 13:17:44;;;;;;;2.67;0.60;;;;;;;;;;5270763;27;20349;-75
2024/04/16 13:20:10;;;;;;;2.92;0.75;;;;;;;;;;5276658;27;20014;-75
2024/04/16 13:22:36;;;;;;;1.45;0.85;;;;;;;;;;5278289;27;20017;-75
2024/04/16 13:25:03;;;;;;;1.13;0.50;;;;;;;;;;5274711;27;20345;-75
2024/04/16 13:27:29;;;;;;;2.15;0.65;;;;;;;;;;5263320;27;20011;-77
2024/04/16 13:29:55;;;;;;;1.13;0.60;;;;;;;;;;5247602;27;20015;-74
2024/04/16 13:32:22;;;;;;;2.60;0.55;;;;;;;;;;5247839;27;20013;-76
2024/04/16 13:34:48;;;;;;;13.02;1.20;;;;;;;;;;5247965;27;20259;-75
2024/04/16 13:37:13;;;;;;;3.03;0.82;;;;;;;;;;5259547;27;20342;-77
2024/04/16 13:39:39;;;;;;;3.72;0.93;;;;;;;;;;5276298;27;19999;-75
2024/04/16 13:42:04;;;;;;;4.18;1.08;;;;;;;;;;5257748;27;20038;-76
2024/04/16 13:44:30;;;;;;;3.03;1.05;;;;;;;;;;5274854;27;20038;-75
2024/04/16 13:46:56;;;;;;;1.52;0.80;;;;;;;;;;5270835;27;20447;-79
2024/04/16 13:49:21;;;;;;;1.58;0.50;;;;;;;;;;5276240;27;19999;-76
2024/04/16 13:51:47;;;;;;;1.10;0.30;;;;;;;;;;5275598;27;20119;-76
2024/04/16 13:54:13;;;;;;;1.45;0.47;;;;;;;;;;5274486;27;20006;-77
2024/04/16 13:56:38;;;;;;;4.25;1.13;;;;;;;;;;5246129;27;20084;-76
2024/04/16 13:59:04;;;;;;;1.10;0.45;;;;;;;;;;5276903;27;19998;-75
2024/04/16 14:01:29;;;;;;;5.82;1.38;;;;;;;;;;5275258;27;20518;-76
2024/04/16 14:03:55;;;;;;;2.58;1.73;;;;;;;;;;5276353;27;19998;-75
2024/04/16 14:06:21;;;;;;;1.58;0.40;;;;;;;;;;5243255;27;20054;-76
2024/04/16 14:08:48;;;;;;;0.28;0.28;;;;;;;;;;5267225;27;20311;-77
2024/04/16 14:11:13;;;;;;;0.65;0.50;;;;;;;;;;5249206;27;20002;-75
2024/04/16 14:13:39;;;;;;;2.85;0.82;;;;;;;;;;5270504;27;19998;-73
2024/04/16 14:16:05;;;;;;;1.50;0.25;;;;;;;;;;5271804;27;20038;-77
2024/04/16 14:18:32;;;;;;;1.60;0.50;;;;;;;;;;5242549;27;20010;-76
2024/04/16 14:20:58;;;;;;;1.83;0.47;;;;;;;;;;5264200;27;20386;-74
2024/04/16 14:23:24;;;;;;;1.27;0.50;;;;;;;;;;5272023;27;20037;-76
2024/04/16 14:25:50;;;;;;;2.33;0.52;;;;;;;;;;5252430;27;20002;-75
2024/04/16 14:28:16;;;;;;;1.17;0.50;;;;;;;;;;5253840;27;19995;-73
2024/04/16 14:30:41;;;;;;;0.38;0.20;;;;;;;;;;5272557;27;20002;-75
2024/04/16 14:33:08;;;;;;;0.98;0.38;;;;;;;;;;5243830;27;20014;-73
2024/04/16 14:35:34;;;;;;;0.52;0.40;;;;;;;;;;5272804;27;20511;-76
2024/04/16 14:38:00;;;;;;;1.13;0.52;;;;;;;;;;5226447;27;19998;-75
2024/04/16 14:40:26;;;;;;;0.80;0.50;;;;;;;;;;5252123;27;20002;-76